Terminal Aerodrome Forecast
Issued by NWS

Home | Current Version | Previous Version | Text Only | Print | Product List | Glossary On
Versions: 1 2 3 4 5 6 7 8 9 10 11 12 13 14 15 16 17 18 19 20 21 22 23 24 25 26 27 28 29 30 31 32 33 34 35 36 37 38 39 40 41 42 43 44 45 46 47 48 49 50
132
FTUS43 KDTX 231919 CCA
TAFYIP
TAF COR
KYIP 231919Z 2319/2418 VRB03KT P6SM BKN050
      TEMPO 2319/2322 3SM TSRA BKN025CB OVC050
     FM232300 30007KT P6SM SCT050 BKN100
     FM241000 30010KT P6SM OVC015
     FM241600 33010KT P6SM BKN035=

USA.gov is the U.S. government's official web portal to all federal, state and local government web resources and services.